Home   Weather   Switzerland   Worb   Past weeks
Flag for Switzerland

Past Weather in Worb, Bern, Switzerland — Yesterday and Last 2 Weeks

Currently: 68 °F. Passing clouds. (Weather station: Bern / Belp, Switzerland). See more current weather

Past Weather in Worb — Graph

°F

Worb Temperature Yesterday

Maximum temperature yesterday: 73 °F (at 3:50 pm)
Minimum temperature yesterday: 43 °F (at 7:20 am)
Average temperature yesterday: 57 °F

High & Low Weather Summary for the Past Weeks

 TemperatureHumidityPressure
High73 °F (Oct 5, 3:50 pm)100% (Sep 21, 11:50 pm)30.45 "Hg (Sep 21, 11:50 pm)
Low36 °F (Sep 22, 7:50 am)41% (Oct 5, 5:20 pm)29.50 "Hg (Sep 28, 8:20 am)
Average53 °F85%30.00 "Hg
* Reported Sep 21 12:20 pm — Oct 6 12:50 pm, Worb. Weather by CustomWeather, © 2022

Note: Actual official high and low records may vary slightly from our data, if they occured in-between our weather recording intervals... More about our weather records

Worb Weather History for the Previous 24 Hours

Scroll right to see more
 ConditionsComfort  
Time TempWeatherWind HumidityBarometerVisibility
12:50 pm
Thu, Oct 6
66 °FSunny.2 mph68%30.42 "Hg10 mi
12:20 pm64 °FPassing clouds.2 mph64%30.42 "HgN/A
10:50 am59 °FPassing clouds.5 mph77%30.45 "HgN/A
10:20 am57 °FPassing clouds.5 mph82%30.45 "HgN/A
9:50 am54 °FSunny.7 mph88%30.45 "Hg10 mi
9:20 am50 °FSunny.6 mph94%30.45 "Hg10 mi
8:50 am48 °FSunny.6 mph94%30.45 "Hg10 mi
8:20 am45 °FSunny.5 mph100%30.42 "Hg10 mi
7:50 am45 °FSunny.5 mph93%30.42 "Hg10 mi
7:20 am45 °FClear.3 mph100%30.42 "Hg10 mi
6:50 am45 °FQuite cool.3 mph100%30.42 "HgN/A
6:20 am45 °FQuite cool.1 mph93%30.42 "HgN/A
5:50 am45 °FQuite cool.2 mph93%30.39 "HgN/A
5:20 am45 °FQuite cool.1 mph100%30.39 "HgN/A
4:20 am45 °FQuite cool.1 mph100%30.39 "HgN/A
3:20 am46 °FCool.3 mph93%30.39 "HgN/A
2:50 am46 °FCool.1 mph100%30.39 "HgN/A
1:20 am46 °FCool.5 mph100%30.36 "HgN/A
12:50 am46 °FCool.1 mph100%30.36 "HgN/A
12:20 am48 °FCool.1 mph100%30.36 "HgN/A
11:50 pm
Wed, Oct 5
50 °FCool.1 mph94%30.36 "HgN/A
11:20 pm52 °FCool.1 mph88%30.33 "HgN/A
10:20 pm55 °FCool.2 mph82%30.33 "HgN/A
9:50 pm54 °FCool.2 mph88%30.30 "HgN/A
9:20 pm54 °FCool.1 mph88%30.30 "HgN/A
8:50 pm57 °FPassing clouds.6 mph82%30.27 "HgN/A
8:20 pm59 °FClear.2 mph77%30.27 "Hg10 mi
7:50 pm61 °FClear.2 mph68%30.24 "Hg10 mi
7:20 pm68 °FClear.2 mph49%30.24 "Hg10 mi
6:50 pm70 °FMild.3 mph46%30.24 "HgN/A
6:20 pm72 °FSunny.2 mph44%30.21 "Hg10 mi
5:50 pm73 °FSunny.3 mph44%30.21 "Hg10 mi
5:20 pm73 °FPassing clouds.7 mph41%30.21 "HgN/A
4:50 pm73 °FMild.6 mph44%30.21 "HgN/A
4:20 pm73 °FPassing clouds.6 mph44%30.21 "HgN/A
3:50 pm73 °FPassing clouds.6 mph50%30.21 "HgN/A
3:20 pm72 °FSunny.No wind53%30.21 "Hg10 mi
2:50 pm70 °FSunny.No wind53%30.21 "Hg10 mi
2:20 pm70 °FSunny.2 mph57%30.21 "Hg10 mi
1:20 pm68 °FSunny.1 mph56%30.24 "Hg10 mi
Weather by CustomWeather, © 2022

See weather overview